Los Menucos, Argentina
Current Conditions -  °F | °C
As of 1:00 AM on Sunday 23 Nov 2014 (Local Time) from SAZN Reporting Station
Clear Clear  
Wind Chill: 19°   Ceiling: Unl
Heat Index: 19°   Visibility: 6mi
Dew Point:   Wind: 6mph
Humidity: 30%   Direction: 230°SW
Pressure: 29.8"   Gusts: NA
Location:  40.83°S, 68.13°W
Report Text: SAZN 230400Z 23005KT CAVOK 19/01 Q1009
Loading
Personal Weather Stations






























Interactive Weather Map New forecast layout! Learn more

10-Day Weather Forecast

Advertisements
Track Severe Weather on mobile